Otto, Wyoming
Current Conditions -  °F | °C
As of 10:53 AM on Tuesday 21 Oct 2014 (Local Time) from KGEY Reporting Station
Clear Clear  
Wind Chill: 65°   Ceiling: Unl
Heat Index: 65°   Visibility: 10mi
Dew Point: 35°   Wind: 6mph
Humidity: 33%   Direction: 140°SE
Pressure: 29.78"   Gusts: NA
Location:  44.4°N, 108.28°W
Report Text: KGEY 211653Z AUTO 14005KT 10SM CLR 18/02 A2978 RMK AO2 SLP068 T01830017
Loading
Personal Weather Stations






























Interactive Weather Map
Tropical Storm Tracking
New forecast layout! Learn more

10-Day Weather Forecast

Advertisements
Track Severe Weather on mobile